• Join FlightAware (Why Join?)
  • Login
  • US Flag 
06:07AM EDT


 

Airport Tracker/Info


-or-


 

Live Flight TrackerFlight Track Log ✈ N709UW ✈ 11-Apr-2013 ✈ KBOS - KCLT

Flight Track Log - Related Links

Times and Time Zones

All times are in EDT time to prevent confusion due to time zone crossing. See the N709UW flight status page for this flight to view local times or setup timezone preferences in your user account.

Time Position Orientation Groundspeed Altitude Reporting Facility
EDT Latitude Longitude Course Direction KTS MPH feet Rate Location/Type
05:19PM 42.3667 -70.9833 228° Southwest 168 193 800  Level KA90
05:20PM 42.3833 -70.9000 75° East 215 247 2,800 2,160 Climbing KA90
05:21PM 42.3831 -70.8606 91° East 235 270 4,400 1,560 Climbing Boston Center
05:22PM 42.4280 -70.7840 114° Southeast  Level FlightAware Approximate
05:22PM 42.3819 -70.7789 91° East 240 276 5,300  Level Boston Center
05:23PM 42.3397 -70.7246 172° South  Level FlightAware Approximate
05:23PM 42.3108 -70.7611 170° South 183 211 8,100  Level Boston Center
05:24PM 42.2538 -70.7859 228° Southwest  Level FlightAware Approximate
05:24PM 42.2597 -70.8186 220° Southwest 183 211 10,700  Level Boston Center
05:25PM 42.2403 -70.9203 256° West 262 302 12,400 1,560 Climbing Boston Center
05:26PM 42.2147 -71.0469 255° West 304 350 13,800 1,800 Climbing Boston Center
05:27PM 42.1931 -71.1650 256° West 345 397 16,000 1,980 Climbing Boston Center
05:28PM 42.1656 -71.3086 256° West 358 412 17,900 1,560 Climbing Boston Center
05:29PM 42.1481 -71.4347 259° West 363 418 19,200 1,380 Climbing Boston Center
05:30PM 42.1136 -71.5836 253° West 376 433 20,700 1,440 Climbing Boston Center
05:31PM 42.0856 -71.7294 256° West 388 447 22,100 1,560 Climbing Boston Center
05:32PM 42.0633 -71.8753 258° West 393 452 23,900 1,440 Climbing Boston Center
05:33PM 42.0411 -72.0236 259° West 400 460 25,100 1,200 Climbing Boston Center
05:34PM 42.0167 -72.1775 258° West 412 474 26,300 1,020 Climbing Boston Center
05:35PM 41.9522 -72.3089 237° Southwest 412 474 27,200 1,200 Climbing Boston Center
05:36PM 41.8836 -72.4428 235° Southwest 426 490 28,800 840 Climbing Boston Center
05:37PM 41.8147 -72.5711 234° Southwest 437 503 29,000 60 Climbing Boston Center
05:38PM 41.7500 -72.6961 235° Southwest 431 496 29,000  Level Boston Center
05:39PM 41.6808 -72.8236 234° Southwest 425 489 29,000  Level Boston Center
05:40PM 41.6156 -72.9511 236° Southwest 425 489 29,000  Level Boston Center
05:41PM 41.5461 -73.0808 234° Southwest 425 489 29,000  Level Boston Center
05:42PM 41.4828 -73.2022 235° Southwest 417 480 29,000  Level Boston Center
05:43PM 41.4131 -73.3369 235° Southwest 424 488 29,000  Level Boston Center
05:44PM 41.3042 -73.5414 235° Southwest 426 490 29,000 120 Level New York Center
05:45PM 41.2344 -73.6653 233° Southwest 426 490 29,400 480 Climbing New York Center
05:46PM 41.1606 -73.7889 232° Southwest 426 490 30,000 300 Climbing New York Center
05:47PM 41.0867 -73.9094 231° Southwest 431 496 30,000  Level New York Center
05:48PM 41.0144 -74.0353 233° Southwest 431 496 30,000  Level New York Center
05:49PM 40.9422 -74.1556 232° Southwest 431 496 30,000  Level New York Center
05:50PM 40.8594 -74.2856 230° Southwest 431 496 30,000  Level New York Center
05:51PM 40.7847 -74.4081 231° Southwest 436 502 30,000  Level New York Center
05:52PM 40.7100 -74.5325 232° Southwest 436 502 30,000  Level New York Center
05:53PM 40.6353 -74.6542 231° Southwest 431 496 30,000  Level New York Center
05:54PM 40.5625 -74.7703 230° Southwest 431 496 30,000  Level New York Center
05:55PM 40.4836 -74.8858 228° Southwest 431 496 30,000  Level New York Center
05:56PM 40.4025 -74.9981 227° Southwest 431 496 30,000  Level New York Center
05:57PM 40.3192 -75.1156 227° Southwest 431 496 30,000  Level New York Center
05:58PM 40.2397 -75.2275 227° Southwest 431 496 30,000  Level New York Center
05:59PM 40.1583 -75.3417 227° Southwest 431 496 30,000  Level New York Center
06:00PM 40.0789 -75.4558 228° Southwest 431 496 30,000  Level New York Center
06:01PM 40.0039 -75.5594 227° Southwest 431 496 30,000  Level New York Center
06:02PM 39.9222 -75.6700 226° Southwest 431 496 30,000  Level New York Center
06:03PM 39.8481 -75.7919 232° Southwest 431 496 30,000  Level New York Center
06:04PM 39.7700 -75.9108 230° Southwest 431 496 30,000  Level New York Center
06:05PM 39.6939 -76.0319 231° Southwest 436 502 30,000  Level New York Center
06:07PM 39.5744 -76.2189 230° Southwest 430 495 30,000  Level Washington Center
06:08PM 39.4967 -76.3419 231° Southwest 430 495 30,000  Level Washington Center
06:09PM 39.4189 -76.4619 230° Southwest 430 495 30,000  Level Washington Center
06:10PM 39.3408 -76.5817 230° Southwest 435 501 30,000  Level Washington Center
06:11PM 39.2625 -76.7039 230° Southwest 435 501 30,000  Level Washington Center
06:12PM 39.1864 -76.8233 231° Southwest 441 507 30,000  Level Washington Center
06:13PM 39.1100 -76.9425 230° Southwest 441 507 30,000  Level Washington Center
06:14PM 39.0275 -77.0586 228° Southwest 441 507 30,000  Level Washington Center
06:15PM 38.9344 -77.1608 221° Southwest 436 502 30,000 -120 Level Washington Center
06:16PM 38.8414 -77.2575 219° Southwest 436 502 29,800 -600 Descending Washington Center
06:17PM 38.7419 -77.3669 221° Southwest 436 502 28,800 -900 Descending Washington Center
06:18PM 38.6550 -77.4633 221° Southwest 431 496 28,000 -420 Descending Washington Center
06:19PM 38.5617 -77.5644 220° Southwest 431 496 28,000 -60 Level Washington Center
06:20PM 38.4703 -77.6628 220° Southwest 436 502 27,900 -600 Descending Washington Center
06:21PM 38.3767 -77.7633 220° Southwest 436 502 26,900 -960 Descending Washington Center
06:22PM 38.2853 -77.8639 221° Southwest 436 502 26,000 -480 Descending Washington Center
06:23PM 38.1917 -77.9617 219° Southwest 436 502 26,000  Level Washington Center
06:24PM 38.0956 -78.0642 220° Southwest 441 507 26,000  Level Washington Center
06:25PM 38.0039 -78.1639 221° Southwest 441 507 26,000  Level Washington Center
06:26PM 37.9369 -78.2722 232° Southwest 431 496 26,000  Level Washington Center
06:27PM 37.8550 -78.3875 228° Southwest 436 502 26,000  Level Washington Center
06:28PM 37.7750 -78.5003 228° Southwest 441 507 26,000  Level Washington Center
06:29PM 37.6931 -78.6178 229° Southwest 441 507 26,000  Level Washington Center
06:30PM 37.6019 -78.7453 228° Southwest 451 519 26,000  Level Washington Center
06:31PM 37.5197 -78.8650 229° Southwest 451 519 26,000  Level Washington Center
06:32PM 37.4350 -78.9814 228° Southwest 451 519 26,000  Level Washington Center
06:33PM 37.3503 -79.0981 228° Southwest 451 519 26,000  Level Washington Center
06:34PM 37.2742 -79.2067 229° Southwest 444 511 26,000  Level Washington Center
06:35PM 37.2031 -79.2764 218° Southwest 399 459 26,000  Level Washington Center
06:36PM 37.1175 -79.3478 214° Southwest 373 429 26,000  Level Washington Center
06:37PM 37.0317 -79.4192 214° Southwest 373 429 26,000  Level Washington Center
06:38PM 36.9481 -79.4878 213° Southwest 368 423 26,000  Level Washington Center
06:39PM 36.8536 -79.5658 213° Southwest 368 423 26,000  Level Washington Center
06:40PM 36.7700 -79.6344 213° Southwest 368 423 26,000  Level Washington Center
06:41PM 36.6842 -79.7050 213° Southwest 368 423 26,000 -360 Level Washington Center
06:42PM 36.5994 -79.7722 213° Southwest 370 426 25,300 -900 Descending Atlanta Center
06:43PM 36.5203 -79.8358 213° Southwest 370 426 24,300 -960 Descending Atlanta Center
06:44PM 36.4369 -79.9047 214° Southwest 363 418 23,400 -960 Descending Atlanta Center
06:45PM 36.3597 -79.9653 212° Southwest 352 405 22,400 -720 Descending Atlanta Center
06:46PM 36.2867 -80.0258 214° Southwest 338 389 22,000 -600 Descending Atlanta Center
06:47PM 36.2097 -80.0939 216° Southwest 319 367 21,300 -1,260 Descending Atlanta Center
06:48PM 36.1708 -80.1806 241° Southwest 298 343 19,500 -1,800 Descending Atlanta Center
06:49PM 36.1531 -80.2844 258° West 298 343 17,700 -1,740 Descending Atlanta Center
06:50PM 36.1356 -80.3906 258° West 304 350 16,100 -1,500 Descending Atlanta Center
06:51PM 36.0719 -80.4269 205° Southwest 261 300 14,800 -1,260 Descending Atlanta Center
06:52PM 36.0114 -80.4294 182° South 287 330 14,000 -900 Descending Atlanta Center
06:52PM 35.9925 -80.4278 176° South 250 288 13,900 -540 Descending Atlanta Center
06:53PM 35.9200 -80.4361 185° South 282 325 13,400 -480 Descending Atlanta Center
06:54PM 35.8303 -80.4375 181° South 277 319 13,000 -420 Descending Atlanta Center
06:55PM 35.7728 -80.4708 205° Southwest 267 307 12,600 -720 Descending Atlanta Center
06:56PM 35.7094 -80.5197 212° Southwest 262 302 11,600 -1,020 Descending Atlanta Center
06:57PM 35.6739 -80.5903 238° Southwest 256 295 10,600 -1,080 Descending Atlanta Center
06:58PM 35.6450 -80.6731 247° West 254 292 9,500 -1,440 Descending Atlanta Center
06:59PM 35.6158 -80.7483 245° Southwest 262 302 7,800 -1,620 Descending Atlanta Center
07:00PM 35.5758 -80.8189 235° Southwest 257 296 6,200 -1,140 Descending Atlanta Center
07:01PM 35.5214 -80.8850 225° Southwest 257 296 5,600 -960 Descending Atlanta Center
07:02PM 35.4686 -80.9456 223° Southwest 244 281 4,200 -780 Descending Atlanta Center
07:03PM 35.4111 -80.9783 205° Southwest 203 234 4,000 -480 Descending Atlanta Center
07:04PM 35.3631 -80.9797 181° South 184 212 3,300 -780 Descending FAA TRACON SMA TRACON (SMA)
07:04PM 35.3475 -80.9781 175° South 183 211 3,000 -780 Descending FAA TRACON SMA TRACON (SMA)
07:05PM 35.3333 -80.9772 177° South 181 208 2,800 -600 Descending FAA TRACON SMA TRACON (SMA)